Time;durP1;ratioP1;P1;durP2;ratioP2;P2;SDS_P1;SDS_P2;PMS_P1;PMS_P2;Temp;Humidity;BMP_temperature;BMP_pressure;BME280_temperature;BME280_humidity;BME280_pressure;Samples;Min_cycle;Max_cycle;Signal;HPM_P1;HPM_P2
2021/12/11 00:00:35;;;;;;;1.80;1.20;;;4.80;96.00;;;;;;5107739;28;20181;-44
2021/12/11 00:03:17;;;;;;;3.13;1.60;;;4.70;96.20;;;;;;5105376;28;20430;-45
2021/12/11 00:05:50;;;;;;;1.47;0.90;;;4.60;96.30;;;;;;5109406;28;20418;-45
2021/12/11 00:08:20;;;;;;;1.47;1.10;;;4.60;96.50;;;;;;5110975;28;20434;-46
2021/12/11 00:10:52;;;;;;;1.37;1.10;;;4.60;96.70;;;;;;5087998;28;20523;-44
2021/12/11 00:13:24;;;;;;;1.67;1.30;;;4.60;96.80;;;;;;5104781;28;20466;-45
2021/12/11 00:15:50;;;;;;;1.57;1.10;;;4.60;96.90;;;;;;5106042;28;20429;-46
2021/12/11 00:18:22;;;;;;;1.53;1.30;;;4.60;96.90;;;;;;5109422;28;20449;-46
2021/12/11 00:21:04;;;;;;;1.70;1.30;;;4.50;96.80;;;;;;5114933;28;20839;-45
2021/12/11 00:23:40;;;;;;;1.30;1.00;;;4.50;96.80;;;;;;5111979;28;20480;-46
2021/12/11 00:26:08;;;;;;;2.63;1.03;;;4.50;96.90;;;;;;5106968;28;20485;-46
2021/12/11 00:28:46;;;;;;;1.40;1.20;;;4.50;96.90;;;;;;5107601;28;20466;-45
2021/12/11 00:31:13;;;;;;;3.40;0.87;;;4.50;97.00;;;;;;5107060;28;20793;-45
2021/12/11 00:33:39;;;;;;;1.83;1.20;;;4.50;97.00;;;;;;5107230;28;20482;-45
2021/12/11 00:36:13;;;;;;;1.77;1.37;;;4.40;96.90;;;;;;5108117;28;20758;-45
2021/12/11 00:38:40;;;;;;;1.40;1.00;;;4.40;96.90;;;;;;5108248;28;20171;-45
2021/12/11 00:41:10;;;;;;;1.17;0.70;;;4.40;97.00;;;;;;5106625;28;20419;-45
2021/12/11 00:43:40;;;;;;;1.30;1.03;;;4.40;97.00;;;;;;5108387;28;20437;-46
2021/12/11 00:46:10;;;;;;;1.57;1.17;;;4.40;97.10;;;;;;5117539;28;20926;-45
2021/12/11 00:48:36;;;;;;;1.40;1.03;;;4.30;97.10;;;;;;5118472;28;20441;-45
2021/12/11 00:51:09;;;;;;;1.60;1.23;;;4.40;97.20;;;;;;5118835;28;20413;-45
2021/12/11 00:53:41;;;;;;;1.23;0.80;;;4.40;97.30;;;;;;5118653;28;20491;-45
2021/12/11 00:56:11;;;;;;;1.73;1.10;;;4.40;97.20;;;;;;5118164;28;20428;-45
2021/12/11 00:58:38;;;;;;;1.20;0.80;;;4.40;97.30;;;;;;5118298;28;20409;-45
2021/12/11 01:01:14;;;;;;;1.37;1.00;;;4.30;97.20;;;;;;5116953;28;20498;-45
2021/12/11 01:03:56;;;;;;;2.67;1.00;;;4.30;97.20;;;;;;5117902;28;20429;-45
2021/12/11 01:06:25;;;;;;;1.57;0.90;;;4.40;97.30;;;;;;5116670;28;20705;-45
2021/12/11 01:09:02;;;;;;;1.13;0.80;;;4.40;97.30;;;;;;5117022;28;20421;-46
2021/12/11 01:11:35;;;;;;;1.20;0.90;;;4.40;97.30;;;;;;5117138;28;20558;-45
2021/12/11 01:14:18;;;;;;;1.47;0.83;;;4.40;97.30;;;;;;5116696;28;20413;-45
2021/12/11 01:17:09;;;;;;;1.80;1.10;;;4.30;97.20;;;;;;5116460;28;20442;-46
2021/12/11 01:19:38;;;;;;;3.53;1.00;;;4.40;97.30;;;;;;5115871;28;20425;-45
2021/12/11 01:22:20;;;;;;;1.87;1.20;;;4.40;97.30;;;;;;5117109;28;20478;-45
2021/12/11 01:24:48;;;;;;;1.00;0.50;;;4.40;97.30;;;;;;5116604;28;20410;-45
2021/12/11 01:27:17;;;;;;;1.10;0.70;;;4.30;97.20;;;;;;5115953;28;20525;-45
2021/12/11 01:29:44;;;;;;;1.30;0.97;;;4.40;97.30;;;;;;5117088;28;20410;-46
2021/12/11 01:32:11;;;;;;;1.30;0.80;;;4.30;97.30;;;;;;5115681;28;20488;-45
2021/12/11 01:34:37;;;;;;;1.50;1.10;;;4.30;97.30;;;;;;5117937;28;20930;-45
2021/12/11 01:37:04;;;;;;;1.30;0.73;;;4.30;97.40;;;;;;5119598;28;20493;-45
2021/12/11 01:39:33;;;;;;;1.00;0.60;;;4.20;97.40;;;;;;5122570;28;20523;-45
2021/12/11 01:42:00;;;;;;;1.67;1.10;;;4.20;97.50;;;;;;5121895;28;20410;-46
2021/12/11 01:44:32;;;;;;;2.23;0.70;;;4.20;97.50;;;;;;5122378;28;20481;-45
2021/12/11 01:47:06;;;;;;;1.07;0.70;;;4.20;97.60;;;;;;5121845;28;20417;-46
2021/12/11 01:49:32;;;;;;;1.20;0.60;;;4.20;97.70;;;;;;5121408;28;20406;-46
2021/12/11 01:52:14;;;;;;;1.10;0.70;;;4.20;97.70;;;;;;5121754;28;20508;-45
2021/12/11 01:54:44;;;;;;;1.07;0.73;;;4.20;97.70;;;;;;5122183;28;20461;-45
2021/12/11 01:57:22;;;;;;;1.00;0.90;;;4.20;97.70;;;;;;5121500;28;20461;-45
2021/12/11 01:59:54;;;;;;;1.20;0.93;;;4.20;98.00;;;;;;5122175;27;20401;-46
2021/12/11 02:03:15;;;;;;;1.00;0.90;;;4.20;97.70;;;;;;5122044;28;20539;-45
2021/12/11 02:05:42;;;;;;;1.17;0.93;;;4.20;97.70;;;;;;5112044;28;20474;-45
2021/12/11 02:08:13;;;;;;;1.23;0.80;;;4.20;97.80;;;;;;5100795;28;20487;-45
2021/12/11 02:10:54;;;;;;;1.60;0.73;;;4.20;97.80;;;;;;5100817;28;20851;-45
2021/12/11 02:13:35;;;;;;;1.20;1.00;;;4.20;97.80;;;;;;5099955;28;20522;-46
2021/12/11 02:16:03;;;;;;;0.80;0.60;;;4.20;97.80;;;;;;5100181;28;20418;-46
2021/12/11 02:18:35;;;;;;;1.00;0.83;;;4.20;97.80;;;;;;5099410;28;20432;-46
2021/12/11 02:21:08;;;;;;;1.40;0.90;;;4.20;97.80;;;;;;5099886;28;20839;-45
2021/12/11 02:23:34;;;;;;;1.00;0.70;;;4.30;97.80;;;;;;5100462;28;20430;-45
2021/12/11 02:26:04;;;;;;;1.30;0.70;;;4.30;97.80;;;;;;5100827;28;20458;-45
2021/12/11 02:28:49;;;;;;;1.00;0.80;;;4.30;97.70;;;;;;5099124;28;20435;-46
2021/12/11 02:31:56;;;;;;;0.90;0.70;;;4.30;97.70;;;;;;5100666;28;20500;-45
2021/12/11 02:34:37;;;;;;;0.93;0.57;;;4.30;97.70;;;;;;5103659;28;20448;-45
2021/12/11 02:37:09;;;;;;;1.10;0.67;;;4.30;97.70;;;;;;5121344;28;20424;-46
2021/12/11 02:40:10;;;;;;;0.90;0.67;;;4.30;97.70;;;;;;5121413;28;20827;-45
2021/12/11 02:42:42;;;;;;;0.70;0.30;;;4.40;97.70;;;;;;5107221;27;20433;-45
2021/12/11 02:45:19;;;;;;;0.80;0.50;;;4.40;97.60;;;;;;5121119;28;20441;-46
2021/12/11 02:47:57;;;;;;;1.00;0.63;;;4.40;97.60;;;;;;5121163;28;20762;-46
2021/12/11 02:50:37;;;;;;;0.70;0.37;;;4.40;97.60;;;;;;5121244;28;20506;-45
2021/12/11 02:53:13;;;;;;;1.57;0.47;;;4.50;97.60;;;;;;5119628;28;20809;-46
2021/12/11 02:55:44;;;;;;;1.10;0.70;;;4.50;97.50;;;;;;5120907;28;20749;-46
2021/12/11 02:58:17;;;;;;;1.20;0.80;;;4.50;97.40;;;;;;5102945;28;20445;-46
2021/12/11 03:00:55;;;;;;;1.47;0.83;;;4.50;97.30;;;;;;5120564;28;20422;-44
2021/12/11 03:03:26;;;;;;;0.90;0.67;;;4.50;97.10;;;;;;5120084;28;20418;-44
2021/12/11 03:06:02;;;;;;;1.00;0.50;;;4.50;97.00;;;;;;5099495;28;20668;-45
2021/12/11 03:08:28;;;;;;;0.83;0.50;;;4.40;96.80;;;;;;5100292;28;20410;-45
2021/12/11 03:10:58;;;;;;;0.70;0.40;;;4.40;96.70;;;;;;5099915;28;20471;-45
2021/12/11 03:13:26;;;;;;;1.10;0.60;;;4.40;96.60;;;;;;5099819;28;20179;-45
2021/12/11 03:15:52;;;;;;;1.20;0.70;;;4.30;96.50;;;;;;5099518;28;20447;-45
2021/12/11 03:18:18;;;;;;;1.47;0.50;;;4.30;96.50;;;;;;5099911;28;20442;-45
2021/12/11 03:20:44;;;;;;;1.27;0.60;;;4.30;96.40;;;;;;5097675;28;20564;-45
2021/12/11 03:23:11;;;;;;;1.00;0.60;;;4.30;96.50;;;;;;5099297;28;20215;-45
2021/12/11 03:25:38;;;;;;;0.90;0.60;;;4.20;96.40;;;;;;5098527;28;20514;-45
2021/12/11 03:28:05;;;;;;;1.00;0.50;;;4.20;96.40;;;;;;5098348;28;20521;-45
2021/12/11 03:30:35;;;;;;;1.23;0.73;;;4.20;96.40;;;;;;5098161;28;20414;-45
2021/12/11 03:33:08;;;;;;;1.00;0.67;;;4.20;96.40;;;;;;5095943;28;20478;-45
2021/12/11 03:35:34;;;;;;;0.80;0.67;;;4.20;96.40;;;;;;5117413;28;20482;-45
2021/12/11 03:38:00;;;;;;;1.03;0.93;;;4.20;96.30;;;;;;5118578;28;20455;-45
2021/12/11 03:40:26;;;;;;;1.20;1.10;;;4.20;96.30;;;;;;5119755;28;20824;-45
2021/12/11 03:42:54;;;;;;;1.50;1.40;;;4.10;96.20;;;;;;5119544;28;20456;-45
2021/12/11 03:45:25;;;;;;;1.67;1.57;;;4.10;96.40;;;;;;5119641;28;20823;-46
2021/12/11 03:47:55;;;;;;;1.40;1.13;;;4.10;96.10;;;;;;5119452;28;20425;-45
2021/12/11 03:50:22;;;;;;;1.70;1.60;;;4.10;96.10;;;;;;5119406;28;20511;-46
2021/12/11 03:52:50;;;;;;;1.57;1.47;;;4.10;96.10;;;;;;5119669;28;20469;-44
2021/12/11 03:55:20;;;;;;;1.93;1.73;;;4.10;96.10;;;;;;5119379;27;20571;-45
2021/12/11 03:57:46;;;;;;;2.00;1.83;;;4.10;96.10;;;;;;5119265;28;20433;-45
2021/12/11 04:00:18;;;;;;;3.20;2.40;;;4.10;96.10;;;;;;5118957;28;20406;-45
2021/12/11 04:02:45;;;;;;;2.40;2.20;;;4.10;96.10;;;;;;5119109;28;20203;-45
2021/12/11 04:05:11;;;;;;;2.70;2.50;;;4.10;96.10;;;;;;5118898;28;20422;-45
2021/12/11 04:07:43;;;;;;;3.10;2.90;;;4.10;96.10;;;;;;5119183;28;20455;-45
2021/12/11 04:10:11;;;;;;;3.30;3.00;;;4.10;96.00;;;;;;5118886;28;20785;-46
2021/12/11 04:12:37;;;;;;;2.93;2.73;;;4.10;96.00;;;;;;5118503;28;20478;-45
2021/12/11 04:15:05;;;;;;;2.97;2.67;;;4.20;96.10;;;;;;5118011;28;20409;-45
2021/12/11 04:17:31;;;;;;;3.10;2.90;;;4.20;96.00;;;;;;5117711;27;20821;-46
2021/12/11 04:20:01;;;;;;;2.57;2.37;;;4.20;96.00;;;;;;5118102;28;20525;-46
2021/12/11 04:22:26;;;;;;;3.47;3.17;;;4.10;95.90;;;;;;5118644;28;20179;-46
2021/12/11 04:24:54;;;;;;;2.53;2.33;;;4.10;96.00;;;;;;5117934;28;20491;-46
2021/12/11 04:27:21;;;;;;;2.97;2.50;;;4.10;95.90;;;;;;5118381;28;20459;-44
2021/12/11 04:29:50;;;;;;;2.50;2.30;;;4.10;95.90;;;;;;5118600;28;20691;-43
2021/12/11 04:32:16;;;;;;;2.60;2.40;;;4.10;96.00;;;;;;5115680;28;20481;-43
2021/12/11 04:34:42;;;;;;;2.03;1.93;;;4.10;96.00;;;;;;5118298;28;20665;-43
2021/12/11 04:37:13;;;;;;;2.47;2.27;;;4.20;96.10;;;;;;5118284;28;20498;-44
2021/12/11 04:39:40;;;;;;;2.93;2.60;;;4.20;96.00;;;;;;5117249;28;20414;-43
2021/12/11 04:42:33;;;;;;;2.50;2.30;;;4.20;96.00;;;;;;5117581;28;20475;-44
2021/12/11 04:44:59;;;;;;;2.53;2.33;;;4.20;96.00;;;;;;5118271;28;21068;-43
2021/12/11 04:47:38;;;;;;;2.80;2.60;;;4.20;96.00;;;;;;5117726;28;20591;-44
2021/12/11 04:50:20;;;;;;;3.20;2.90;;;4.20;96.00;;;;;;5117195;28;20688;-43
2021/12/11 04:52:55;;;;;;;2.60;2.40;;;4.20;96.00;;;;;;5117612;28;20834;-43
2021/12/11 04:56:20;;;;;;;3.27;3.07;;;4.20;96.00;;;;;;5118095;28;20461;-43
2021/12/11 05:11:46;;;;;;;4.10;3.63;;;4.20;96.10;;;;;;5117057;28;20473;-48
2021/12/11 05:14:16;;;;;;;3.50;3.23;;;4.20;96.10;;;;;;5117606;28;20849;-48
2021/12/11 05:16:41;;;;;;;3.73;3.43;;;4.30;96.10;;;;;;5117539;28;20477;-48
2021/12/11 05:19:07;;;;;;;3.53;3.23;;;4.30;96.00;;;;;;5117548;28;20418;-48
2021/12/11 05:21:33;;;;;;;3.00;2.80;;;4.30;96.00;;;;;;5117451;28;20590;-48
2021/12/11 05:24:00;;;;;;;4.30;3.90;;;4.30;96.00;;;;;;5117576;28;20267;-48
2021/12/11 05:26:27;;;;;;;3.90;3.60;;;4.30;95.90;;;;;;5117431;28;20432;-48
2021/12/11 05:28:53;;;;;;;3.20;2.90;;;4.30;95.90;;;;;;5117535;28;20412;-47
2021/12/11 05:31:19;;;;;;;3.87;3.57;;;4.30;95.90;;;;;;5117982;28;20466;-48
2021/12/11 05:33:46;;;;;;;3.20;3.00;;;4.30;95.80;;;;;;5117925;28;20422;-48
2021/12/11 05:36:14;;;;;;;4.10;3.70;;;4.30;95.80;;;;;;5116399;28;20491;-48
2021/12/11 05:38:41;;;;;;;3.10;2.80;;;4.30;95.80;;;;;;5108625;28;20915;-48
2021/12/11 05:41:11;;;;;;;3.63;3.33;;;4.30;95.80;;;;;;5107166;28;20411;-48
2021/12/11 05:43:37;;;;;;;3.60;3.30;;;4.30;95.80;;;;;;5096302;28;20418;-48
2021/12/11 05:46:04;;;;;;;3.40;3.10;;;4.30;95.80;;;;;;5095429;28;20801;-47
2021/12/11 05:48:30;;;;;;;4.90;2.97;;;4.30;95.80;;;;;;5096873;28;20173;-48
2021/12/11 05:51:00;;;;;;;3.70;3.40;;;4.30;95.80;;;;;;5097132;28;20755;-48
2021/12/11 05:53:28;;;;;;;3.00;2.80;;;4.30;95.80;;;;;;5097566;28;20402;-48
2021/12/11 05:55:55;;;;;;;3.63;3.33;;;4.30;95.90;;;;;;5095919;28;20543;-47
2021/12/11 05:58:36;;;;;;;3.53;3.23;;;4.30;95.90;;;;;;5094717;28;20825;-48
2021/12/11 06:01:04;;;;;;;4.00;3.70;;;4.30;95.90;;;;;;5095205;28;20824;-47
2021/12/11 06:03:29;;;;;;;3.50;3.30;;;4.30;96.30;;;;;;5096244;28;20407;-48
2021/12/11 06:05:58;;;;;;;3.30;3.10;;;4.30;96.00;;;;;;5115305;28;20819;-48
2021/12/11 06:08:24;;;;;;;4.00;3.60;;;4.30;96.30;;;;;;5115741;28;20187;-48
2021/12/11 06:10:49;;;;;;;3.77;3.47;;;4.30;96.00;;;;;;5116129;28;20704;-47
2021/12/11 06:13:16;;;;;;;3.80;3.50;;;4.30;96.00;;;;;;5114508;28;20273;-48
2021/12/11 06:15:42;;;;;;;4.80;3.80;;;4.20;96.00;;;;;;5105203;28;20180;-48
2021/12/11 06:18:13;;;;;;;3.70;3.40;;;4.20;96.00;;;;;;5100964;28;20750;-47
2021/12/11 06:20:39;;;;;;;4.67;3.60;;;4.20;96.10;;;;;;5096412;28;20275;-48
2021/12/11 06:23:05;;;;;;;3.80;3.50;;;4.20;96.10;;;;;;5099332;28;20465;-47
2021/12/11 06:25:34;;;;;;;4.10;3.80;;;4.20;96.10;;;;;;5101182;28;20179;-48
2021/12/11 06:28:01;;;;;;;3.77;3.47;;;4.20;96.10;;;;;;5100628;28;20259;-48
2021/12/11 06:30:27;;;;;;;4.20;3.90;;;4.20;96.20;;;;;;5100304;28;20422;-48
2021/12/11 06:32:55;;;;;;;3.70;3.40;;;4.20;96.20;;;;;;5099544;28;20569;-48
2021/12/11 06:35:36;;;;;;;4.00;3.60;;;4.20;96.30;;;;;;5116240;28;20446;-47
2021/12/11 06:38:04;;;;;;;4.43;4.03;;;4.10;96.30;;;;;;5119167;28;20462;-48
2021/12/11 06:40:29;;;;;;;4.00;3.70;;;4.10;96.30;;;;;;5120053;28;20418;-47
2021/12/11 06:42:56;;;;;;;4.20;3.90;;;4.10;96.40;;;;;;5119598;28;20425;-47
2021/12/11 06:45:25;;;;;;;3.80;3.50;;;4.10;96.40;;;;;;5119711;28;20226;-48
2021/12/11 06:47:51;;;;;;;3.70;3.40;;;4.10;96.50;;;;;;5117500;28;20417;-47
2021/12/11 06:50:18;;;;;;;4.00;3.60;;;4.10;96.50;;;;;;5119047;28;20428;-47
2021/12/11 06:52:45;;;;;;;3.70;3.40;;;4.10;96.60;;;;;;5119328;28;20462;-47
2021/12/11 06:55:10;;;;;;;4.60;4.20;;;4.10;96.60;;;;;;5118196;28;20546;-48
2021/12/11 06:57:37;;;;;;;3.80;3.50;;;4.10;96.70;;;;;;5118942;28;20796;-48
2021/12/11 07:00:05;;;;;;;4.43;4.03;;;4.10;96.60;;;;;;5118701;28;20414;-48
2021/12/11 07:02:31;;;;;;;6.47;4.73;;;4.10;96.70;;;;;;5119348;28;20196;-48
2021/12/11 07:04:57;;;;;;;4.27;3.90;;;4.10;96.70;;;;;;5120585;28;20536;-48
2021/12/11 07:07:27;;;;;;;4.33;4.00;;;4.10;96.60;;;;;;5120408;28;20188;-48
2021/12/11 07:09:54;;;;;;;3.87;3.47;;;4.20;96.70;;;;;;5119605;28;20418;-48
2021/12/11 07:12:21;;;;;;;4.50;4.10;;;4.20;96.70;;;;;;5119550;28;20469;-48
2021/12/11 07:14:47;;;;;;;3.90;3.60;;;4.10;96.60;;;;;;5119324;28;20410;-48
2021/12/11 07:17:13;;;;;;;5.80;3.83;;;4.20;96.70;;;;;;5118740;28;20437;-48
2021/12/11 07:19:39;;;;;;;4.50;4.17;;;4.20;96.70;;;;;;5119318;28;20410;-48
2021/12/11 07:22:05;;;;;;;4.10;3.70;;;4.20;96.70;;;;;;5119912;28;20441;-48
2021/12/11 07:24:44;;;;;;;4.40;4.07;;;4.20;96.70;;;;;;5119440;28;20425;-48
2021/12/11 07:27:11;;;;;;;3.73;3.43;;;4.20;96.70;;;;;;5119177;27;20476;-48
2021/12/11 07:29:40;;;;;;;4.83;4.17;;;4.20;96.60;;;;;;5119472;28;20543;-48
2021/12/11 07:32:07;;;;;;;4.63;4.17;;;4.10;96.50;;;;;;5118756;28;20473;-48
2021/12/11 07:34:33;;;;;;;4.83;4.43;;;4.20;96.60;;;;;;5115439;28;20513;-42
2021/12/11 07:36:59;;;;;;;5.20;4.70;;;4.20;96.70;;;;;;5117273;28;20586;-43
2021/12/11 07:39:25;;;;;;;5.07;4.67;;;4.20;96.60;;;;;;5117303;28;20463;-43
2021/12/11 07:41:53;;;;;;;4.60;4.10;;;4.20;96.60;;;;;;5115483;28;20442;-43
2021/12/11 07:44:19;;;;;;;5.40;4.30;;;4.20;96.60;;;;;;5116436;28;20413;-43
2021/12/11 07:46:45;;;;;;;5.93;5.43;;;4.20;96.60;;;;;;5116926;28;20436;-46
2021/12/11 07:49:11;;;;;;;5.37;4.87;;;4.20;96.60;;;;;;5115892;28;20566;-44
2021/12/11 07:51:39;;;;;;;5.67;5.20;;;4.20;96.60;;;;;;5117134;28;20573;-44
2021/12/11 07:54:06;;;;;;;5.87;5.27;;;4.20;96.60;;;;;;5116637;28;20209;-43
2021/12/11 07:56:32;;;;;;;6.07;5.50;;;4.20;96.50;;;;;;5116202;28;20445;-45
2021/12/11 07:59:00;;;;;;;6.03;5.53;;;4.20;96.50;;;;;;5115589;28;20424;-44
2021/12/11 08:01:27;;;;;;;6.80;5.77;;;4.30;96.50;;;;;;5113520;28;21039;-43
2021/12/11 08:03:57;;;;;;;6.93;6.33;;;4.30;96.50;;;;;;5103065;28;20430;-44
2021/12/11 08:06:23;;;;;;;6.63;6.03;;;4.30;96.40;;;;;;5116958;28;20499;-44
2021/12/11 08:08:48;;;;;;;7.20;6.60;;;4.30;96.40;;;;;;5117488;28;20434;-46
2021/12/11 08:11:17;;;;;;;7.40;6.70;;;4.30;96.30;;;;;;5116705;28;20445;-43
2021/12/11 08:13:45;;;;;;;7.43;6.80;;;4.30;96.30;;;;;;5111659;28;20176;-43
2021/12/11 08:16:13;;;;;;;7.50;6.80;;;4.30;96.20;;;;;;5099742;28;20431;-43
2021/12/11 08:18:39;;;;;;;8.87;8.07;;;4.40;96.30;;;;;;5098374;28;20474;-43
2021/12/11 08:21:05;;;;;;;8.20;7.50;;;4.40;96.30;;;;;;5097471;28;20452;-42
2021/12/11 08:23:31;;;;;;;9.23;8.43;;;4.40;96.20;;;;;;5095802;28;20430;-42
2021/12/11 08:25:59;;;;;;;9.57;8.67;;;4.40;96.20;;;;;;5100635;28;20452;-42
2021/12/11 08:28:27;;;;;;;9.50;8.70;;;4.40;96.20;;;;;;5108893;28;20421;-43
2021/12/11 08:30:54;;;;;;;9.43;8.57;;;4.40;96.10;;;;;;5110470;28;20490;-42
2021/12/11 08:33:21;;;;;;;9.77;8.80;;;4.40;96.10;;;;;;5115042;28;20829;-42
2021/12/11 08:35:47;;;;;;;9.80;8.90;;;4.40;96.10;;;;;;5094447;28;20415;-42
2021/12/11 08:38:13;;;;;;;10.90;9.90;;;4.50;96.10;;;;;;5096840;28;20418;-42
2021/12/11 08:40:43;;;;;;;9.97;8.80;;;4.50;96.00;;;;;;5096850;28;20471;-44
2021/12/11 08:43:10;;;;;;;10.20;9.30;;;4.60;96.00;;;;;;5097102;28;20692;-43
2021/12/11 08:45:57;;;;;;;10.83;9.77;;;4.60;95.90;;;;;;5095712;28;20513;-43
2021/12/11 08:48:24;;;;;;;10.00;9.10;;;4.70;95.90;;;;;;5093899;28;20896;-43
2021/12/11 08:50:53;;;;;;;10.73;9.63;;;4.70;95.80;;;;;;5093030;28;20419;-44
2021/12/11 08:53:19;;;;;;;10.13;9.17;;;4.80;95.70;;;;;;5092188;28;20458;-43
2021/12/11 08:55:48;;;;;;;10.97;9.97;;;4.80;95.60;;;;;;5094797;28;20473;-44
2021/12/11 08:58:16;;;;;;;11.40;9.80;;;4.90;95.50;;;;;;5096680;28;20425;-43
2021/12/11 09:00:50;;;;;;;10.37;9.37;;;4.90;95.40;;;;;;5097024;28;20414;-44
2021/12/11 09:03:46;;;;;;;11.20;10.10;;;5.00;95.40;;;;;;5096785;28;20606;-43
2021/12/11 09:06:13;;;;;;;10.47;9.47;;;5.00;95.30;;;;;;5086979;28;20434;-44
2021/12/11 09:08:57;;;;;;;11.93;9.87;;;5.10;95.20;;;;;;5095223;28;20407;-43
2021/12/11 09:11:31;;;;;;;9.83;8.93;;;5.10;95.10;;;;;;5095552;28;20838;-43
2021/12/11 09:14:09;;;;;;;10.57;9.57;;;5.20;95.00;;;;;;5095607;28;20410;-42
2021/12/11 09:16:49;;;;;;;10.67;9.67;;;5.20;94.90;;;;;;5095374;28;20426;-42
2021/12/11 09:19:14;;;;;;;9.50;8.53;;;5.30;94.80;;;;;;5094269;28;20501;-42
2021/12/11 09:21:46;;;;;;;8.43;7.63;;;5.40;94.80;;;;;;5095734;28;20526;-45
2021/12/11 09:24:27;;;;;;;8.90;4.57;;;5.50;96.50;;;;;;5096704;28;20188;-46
2021/12/11 09:27:17;;;;;;;13.90;4.77;;;9.60;99.90;;;;;;5095012;28;20784;-47
2021/12/11 09:30:18;;;;;;;5.67;3.50;;;12.00;99.90;;;;;;5094056;28;20422;-45
2021/12/11 09:32:49;;;;;;;7.97;4.00;;;13.60;98.40;;;;;;5048590;28;20996;-46
2021/12/11 09:35:24;;;;;;;5.27;3.50;;;14.70;94.20;;;;;;5110271;28;20429;-42
2021/12/11 09:37:54;;;;;;;6.03;4.43;;;15.30;92.10;;;;;;5114517;28;20497;-42
2021/12/11 09:40:41;;;;;;;6.57;5.53;;;14.90;90.20;;;;;;5116318;28;20420;-43
2021/12/11 09:43:08;;;;;;;6.90;6.00;;;14.20;89.60;;;;;;5116298;28;20427;-42
2021/12/11 09:45:43;;;;;;;7.80;7.10;;;13.40;88.60;;;;;;5115799;28;20866;-44
2021/12/11 09:48:17;;;;;;;9.10;8.30;;;12.60;88.00;;;;;;5115860;28;20433;-44
2021/12/11 09:50:55;;;;;;;7.53;6.87;;;11.90;87.50;;;;;;5114534;28;20434;-42
2021/12/11 09:53:26;;;;;;;8.33;7.53;;;11.20;87.50;;;;;;5114718;28;20457;-42
2021/12/11 09:55:55;;;;;;;9.00;8.20;;;10.60;87.20;;;;;;5114595;28;20481;-42
2021/12/11 09:58:24;;;;;;;8.30;7.50;;;10.20;87.00;;;;;;5118922;28;20429;-43
2021/12/11 10:00:52;;;;;;;7.70;7.10;;;9.80;88.10;;;;;;5119308;28;20410;-43
2021/12/11 10:03:22;;;;;;;7.33;6.63;;;9.50;88.20;;;;;;5116587;28;20694;-43
2021/12/11 10:05:59;;;;;;;8.77;7.87;;;9.20;88.60;;;;;;5119052;28;20875;-42
2021/12/11 10:08:40;;;;;;;8.47;7.73;;;8.90;88.70;;;;;;5119974;28;20834;-42
2021/12/11 10:11:21;;;;;;;8.40;7.60;;;8.70;88.60;;;;;;5119826;28;20413;-44
2021/12/11 10:13:50;;;;;;;9.33;8.43;;;8.50;88.90;;;;;;5117816;28;20431;-43
2021/12/11 10:16:19;;;;;;;9.53;8.60;;;8.40;89.10;;;;;;5118916;28;20521;-43
2021/12/11 10:18:46;;;;;;;9.30;7.83;;;8.30;89.30;;;;;;5119249;28;20452;-44
2021/12/11 10:21:19;;;;;;;8.40;7.70;;;8.20;89.50;;;;;;5119229;28;20517;-42
2021/12/11 10:23:48;;;;;;;9.57;8.57;;;8.10;89.60;;;;;;5120483;28;20459;-40
2021/12/11 10:26:15;;;;;;;8.63;7.83;;;8.10;90.00;;;;;;5121700;28;20424;-42
2021/12/11 10:28:44;;;;;;;8.63;7.77;;;8.10;90.00;;;;;;5120855;28;20891;-42
2021/12/11 10:31:19;;;;;;;7.30;6.60;;;8.10;89.90;;;;;;5120446;28;20434;-42
2021/12/11 10:33:46;;;;;;;8.83;8.00;;;8.20;89.70;;;;;;5119288;28;20455;-43
2021/12/11 10:36:15;;;;;;;7.97;7.27;;;8.10;89.20;;;;;;5119201;28;20772;-41
2021/12/11 10:38:44;;;;;;;8.17;7.47;;;8.10;89.10;;;;;;5118207;27;20888;-42
2021/12/11 10:41:12;;;;;;;9.50;8.60;;;8.10;88.80;;;;;;5116161;28;20716;-43
2021/12/11 10:43:48;;;;;;;8.40;7.60;;;8.00;88.30;;;;;;5117329;28;20428;-41
2021/12/11 10:46:15;;;;;;;8.47;7.67;;;7.90;87.90;;;;;;5116073;28;20429;-41
2021/12/11 10:48:42;;;;;;;8.03;7.33;;;7.80;87.70;;;;;;5117367;28;20420;-42
2021/12/11 10:51:11;;;;;;;8.27;7.57;;;7.60;87.40;;;;;;5118406;28;20416;-43
2021/12/11 10:53:40;;;;;;;7.43;6.73;;;7.50;87.70;;;;;;5118436;28;20445;-40
2021/12/11 10:56:06;;;;;;;8.70;7.67;;;7.50;88.20;;;;;;5118099;28;20433;-44
2021/12/11 10:58:38;;;;;;;8.07;7.37;;;7.40;88.40;;;;;;5119407;28;20413;-41
2021/12/11 11:01:16;;;;;;;8.23;7.40;;;7.30;88.40;;;;;;5119553;28;20463;-43
2021/12/11 11:03:47;;;;;;;8.37;7.67;;;7.30;88.70;;;;;;5119019;28;20414;-44
2021/12/11 11:06:13;;;;;;;7.40;6.70;;;7.20;88.70;;;;;;5119236;28;20693;-43
2021/12/11 11:08:42;;;;;;;8.37;7.67;;;7.10;88.60;;;;;;5117429;28;20413;-44
2021/12/11 11:11:12;;;;;;;7.30;6.70;;;7.10;88.70;;;;;;5116623;28;20444;-44
2021/12/11 11:13:38;;;;;;;7.90;7.20;;;7.00;88.50;;;;;;5117462;28;20428;-42
2021/12/11 11:16:05;;;;;;;6.87;6.27;;;7.10;88.90;;;;;;5100328;28;20424;-44
2021/12/11 11:18:30;;;;;;;7.57;6.97;;;7.00;89.00;;;;;;5118646;28;20421;-43
2021/12/11 11:21:08;;;;;;;6.93;6.33;;;7.00;88.90;;;;;;5117671;28;20406;-44
2021/12/11 11:23:35;;;;;;;7.53;6.83;;;7.00;88.80;;;;;;5099860;28;20204;-43
2021/12/11 11:26:06;;;;;;;7.30;6.70;;;6.90;88.90;;;;;;5117645;28;20421;-44
2021/12/11 11:28:34;;;;;;;8.30;7.43;;;6.90;89.20;;;;;;5115368;28;20520;-43
2021/12/11 11:31:04;;;;;;;8.17;7.40;;;6.90;89.20;;;;;;5115462;28;20410;-43
2021/12/11 11:33:34;;;;;;;7.47;6.77;;;6.90;89.20;;;;;;5116316;28;20894;-43
2021/12/11 11:36:02;;;;;;;7.73;6.97;;;6.90;89.10;;;;;;5116456;28;20413;-42
2021/12/11 11:38:32;;;;;;;8.37;7.57;;;6.90;89.20;;;;;;5109757;28;20519;-42
2021/12/11 11:41:06;;;;;;;7.37;6.67;;;6.90;89.30;;;;;;5103498;28;20422;-45
2021/12/11 11:43:32;;;;;;;7.60;6.87;;;6.90;89.30;;;;;;5100031;28;20843;-43
2021/12/11 11:45:59;;;;;;;4.07;3.10;;;6.90;89.30;;;;;;5104052;28;20422;-46
2021/12/11 11:48:29;;;;;;;7.07;3.80;;;8.80;99.90;;;;;;5099645;28;20176;-45
2021/12/11 11:50:57;;;;;;;3.10;2.80;;;11.60;99.90;;;;;;5096384;28;20420;-44
2021/12/11 11:53:26;;;;;;;6.73;3.43;;;12.80;98.60;;;;;;5095640;28;20715;-46
2021/12/11 11:56:09;;;;;;;8.03;3.17;;;13.90;95.20;;;;;;5077387;28;21031;-46
2021/12/11 11:58:35;;;;;;;5.30;3.30;;;14.80;92.50;;;;;;5096003;28;20414;-42
2021/12/11 12:01:12;;;;;;;9.73;4.37;;;15.30;90.40;;;;;;5096171;28;20765;-43
2021/12/11 12:03:38;;;;;;;5.13;4.63;;;15.20;87.40;;;;;;5098989;28;20422;-43
2021/12/11 12:06:11;;;;;;;6.60;5.73;;;14.60;83.50;;;;;;5116511;28;20937;-44
2021/12/11 12:08:38;;;;;;;5.60;5.10;;;13.70;78.00;;;;;;5116036;28;20854;-43
2021/12/11 12:11:05;;;;;;;6.53;5.90;;;12.80;76.30;;;;;;5117171;27;20414;-43
2021/12/11 12:13:32;;;;;;;6.23;5.67;;;12.00;73.40;;;;;;5116091;28;20460;-44
2021/12/11 12:16:04;;;;;;;6.07;5.57;;;11.40;72.70;;;;;;5116192;28;20497;-45
2021/12/11 12:18:30;;;;;;;7.43;6.73;;;10.80;72.50;;;;;;5117229;28;20513;-43
2021/12/11 12:20:57;;;;;;;7.90;7.10;;;10.30;72.00;;;;;;5116302;28;20737;-44
2021/12/11 12:23:24;;;;;;;7.97;7.17;;;9.90;73.40;;;;;;5115220;28;20882;-42
2021/12/11 12:25:52;;;;;;;7.50;6.70;;;9.60;73.70;;;;;;5116533;28;20410;-43
2021/12/11 12:28:18;;;;;;;6.70;6.10;;;9.30;73.90;;;;;;5116300;28;20416;-43
2021/12/11 12:31:14;;;;;;;7.00;6.30;;;9.10;74.60;;;;;;5115859;28;20410;-42
2021/12/11 12:33:43;;;;;;;6.20;5.63;;;9.00;75.10;;;;;;5113627;28;20426;-43
2021/12/11 12:36:11;;;;;;;5.60;5.10;;;8.80;74.70;;;;;;5094365;28;20875;-44
2021/12/11 12:38:38;;;;;;;5.50;5.00;;;8.70;74.80;;;;;;5094419;28;20412;-41
2021/12/11 12:41:18;;;;;;;5.27;4.77;;;8.70;75.20;;;;;;5101996;28;20459;-45
2021/12/11 12:46:27;;;;;;;5.33;4.83;;;8.70;75.50;;;;;;5115310;28;20449;-42
2021/12/11 12:48:56;;;;;;;5.97;5.37;;;8.60;75.40;;;;;;5117031;28;20412;-43
2021/12/11 12:51:22;;;;;;;5.17;4.77;;;8.60;75.10;;;;;;5116444;28;20413;-43
2021/12/11 12:53:49;;;;;;;4.77;4.10;;;8.50;75.10;;;;;;5115922;28;20424;-43
2021/12/11 12:56:19;;;;;;;4.77;4.37;;;8.50;75.30;;;;;;5113684;28;20428;-43
2021/12/11 12:58:45;;;;;;;5.63;5.13;;;8.40;75.50;;;;;;5115507;28;20423;-42
2021/12/11 13:01:15;;;;;;;6.10;5.60;;;8.30;75.70;;;;;;5116501;28;20517;-42
2021/12/11 13:03:42;;;;;;;6.00;5.40;;;8.30;75.80;;;;;;5116556;28;20171;-43
2021/12/11 13:06:21;;;;;;;5.30;4.90;;;8.10;75.70;;;;;;5116051;28;20414;-43
2021/12/11 13:09:20;;;;;;;6.03;5.53;;;8.10;76.10;;;;;;5114056;28;20458;-41
2021/12/11 13:11:52;;;;;;;6.73;6.13;;;8.00;76.70;;;;;;5042543;28;20491;-43
2021/12/11 13:14:19;;;;;;;5.83;5.33;;;7.90;77.80;;;;;;5115038;28;20527;-45
2021/12/11 13:16:50;;;;;;;6.77;6.10;;;7.90;77.50;;;;;;5114544;28;20846;-42
2021/12/11 13:19:27;;;;;;;5.60;5.20;;;7.80;77.60;;;;;;5113678;28;20402;-42
2021/12/11 13:22:19;;;;;;;6.77;6.07;;;7.70;77.60;;;;;;5113875;28;20529;-44
2021/12/11 13:24:49;;;;;;;5.50;5.00;;;7.60;77.80;;;;;;5110489;28;20424;-42
2021/12/11 13:27:19;;;;;;;6.77;6.17;;;7.50;78.10;;;;;;5113065;28;20670;-42
2021/12/11 13:29:52;;;;;;;6.37;5.20;;;7.50;78.50;;;;;;5112397;28;20425;-41